createdAt,value
2019-02-11T00:00:32.678Z,0
2019-02-11T00:01:13.262Z,0
2019-02-11T00:01:53.938Z,0
2019-02-11T00:02:34.492Z,0
2019-02-11T00:03:15.108Z,0
2019-02-11T00:03:59.631Z,0
2019-02-11T00:04:36.377Z,0
2019-02-11T00:05:16.992Z,0
2019-02-11T00:05:57.616Z,0
2019-02-11T00:06:38.720Z,0
2019-02-11T00:07:19.279Z,0
2019-02-11T00:07:59.882Z,0
2019-02-11T00:08:40.516Z,0
2019-02-11T00:09:21.511Z,0
2019-02-11T00:10:02.160Z,0
2019-02-11T00:10:42.792Z,0
2019-02-11T00:11:23.411Z,0
2019-02-11T00:12:04.020Z,0
2019-02-11T00:12:44.622Z,0
2019-02-11T00:13:25.294Z,0
2019-02-11T00:14:05.873Z,0
2019-02-11T00:14:46.522Z,0
2019-02-11T00:15:27.108Z,0
2019-02-11T00:16:07.721Z,0
2019-02-11T00:16:48.333Z,0
2019-02-11T00:17:28.958Z,0
2019-02-11T00:18:09.580Z,0
2019-02-11T00:18:50.380Z,0
2019-02-11T00:19:31.018Z,0
2019-02-11T00:20:11.628Z,0
2019-02-11T00:20:52.239Z,0
2019-02-11T00:21:32.855Z,0
2019-02-11T00:22:28.096Z,0
2019-02-11T00:23:08.755Z,0
2019-02-11T00:23:49.514Z,0
2019-02-11T00:24:30.120Z,0
2019-02-11T00:25:10.724Z,0
2019-02-11T00:25:51.412Z,0
2019-02-11T00:26:31.996Z,0
2019-02-11T00:27:12.691Z,0
2019-02-11T00:27:53.357Z,0
2019-02-11T00:28:34.010Z,0
2019-02-11T00:29:14.676Z,0
2019-02-11T00:29:55.298Z,0
2019-02-11T00:30:35.965Z,0
2019-02-11T00:32:51.399Z,0
2019-02-11T00:33:32.036Z,0
2019-02-11T00:34:12.688Z,0
2019-02-11T00:34:53.326Z,0
2019-02-11T00:35:33.950Z,0
2019-02-11T00:36:14.553Z,0
2019-02-11T00:36:55.335Z,0
2019-02-11T00:37:35.978Z,0
2019-02-11T00:38:16.566Z,0
2019-02-11T00:38:57.166Z,0
2019-02-11T00:39:37.762Z,0
2019-02-11T00:40:18.374Z,0
2019-02-11T00:40:59.004Z,0
2019-02-11T00:41:39.680Z,0
2019-02-11T00:42:20.298Z,0
2019-02-11T00:43:00.905Z,0
2019-02-11T00:43:41.516Z,0
2019-02-11T00:44:22.113Z,0
2019-02-11T00:45:02.716Z,0
2019-02-11T00:45:43.372Z,0
2019-02-11T00:46:23.973Z,0
2019-02-11T00:47:04.612Z,0
2019-02-11T00:47:45.200Z,0
2019-02-11T00:48:25.794Z,0
2019-02-11T00:49:06.426Z,0
2019-02-11T00:49:47.060Z,0
2019-02-11T00:50:27.665Z,0
2019-02-11T00:51:08.283Z,0
2019-02-11T00:51:48.898Z,0
2019-02-11T00:52:29.581Z,0
2019-02-11T00:53:10.182Z,0
2019-02-11T00:53:50.832Z,0
2019-02-11T00:54:31.458Z,0
2019-02-11T00:55:12.051Z,0
2019-02-11T00:55:52.676Z,0
2019-02-11T00:56:33.306Z,0
2019-02-11T00:57:13.904Z,0
2019-02-11T00:57:54.497Z,0
2019-02-11T00:58:35.114Z,0
2019-02-11T00:59:15.727Z,0
2019-02-11T00:59:56.334Z,0
2019-02-11T01:00:36.914Z,0
2019-02-11T01:01:17.502Z,0
2019-02-11T01:01:58.103Z,0
2019-02-11T01:02:38.740Z,0
2019-02-11T01:03:19.341Z,0
2019-02-11T01:04:00.248Z,0
2019-02-11T01:04:40.868Z,0
2019-02-11T01:05:21.479Z,0
2019-02-11T01:06:02.141Z,0
2019-02-11T01:06:42.764Z,0
2019-02-11T01:07:23.370Z,0
2019-02-11T01:08:03.971Z,0
2019-02-11T01:08:44.571Z,0
2019-02-11T01:09:25.166Z,0
2019-02-11T01:10:05.762Z,0
2019-02-11T01:10:46.362Z,0
2019-02-11T01:11:26.974Z,0
2019-02-11T01:12:07.562Z,0
2019-02-11T01:12:48.201Z,0
2019-02-11T01:13:28.803Z,0
2019-02-11T01:14:09.398Z,0
2019-02-11T01:14:49.996Z,0
2019-02-11T01:15:30.608Z,0
2019-02-11T01:16:11.211Z,0
2019-02-11T01:16:51.816Z,0
2019-02-11T01:17:32.414Z,0
2019-02-11T01:18:13.019Z,0
2019-02-11T01:18:53.615Z,0
2019-02-11T01:19:34.205Z,0
2019-02-11T01:20:14.807Z,0
2019-02-11T01:20:55.409Z,0
2019-02-11T01:21:36.001Z,0
2019-02-11T01:22:16.617Z,0
2019-02-11T01:22:57.216Z,0
2019-02-11T01:23:37.812Z,0
2019-02-11T01:24:18.410Z,0
2019-02-11T01:24:59.022Z,0
2019-02-11T01:25:39.622Z,0
2019-02-11T01:26:20.223Z,0
2019-02-11T01:27:00.821Z,0
2019-02-11T01:27:41.412Z,0
2019-02-11T01:28:21.993Z,0
2019-02-11T01:29:02.636Z,0
2019-02-11T01:29:43.236Z,0
2019-02-11T01:30:23.828Z,0
2019-02-11T01:31:04.434Z,0
2019-02-11T01:31:45.033Z,0
2019-02-11T01:32:25.635Z,0
2019-02-11T01:33:06.229Z,0
2019-02-11T01:33:46.824Z,0
2019-02-11T01:34:27.404Z,0
2019-02-11T01:35:08.011Z,0
2019-02-11T01:35:48.614Z,0
2019-02-11T01:36:29.211Z,0
2019-02-11T01:37:09.815Z,0
2019-02-11T01:37:50.413Z,0
2019-02-11T01:38:31.022Z,0
2019-02-11T01:39:11.610Z,0
2019-02-11T01:39:52.204Z,0
2019-02-11T01:40:32.801Z,0
2019-02-11T01:41:13.407Z,0
2019-02-11T01:41:53.998Z,0
2019-02-11T01:42:34.590Z,0
2019-02-11T01:43:15.197Z,0
2019-02-11T01:43:55.816Z,0
2019-02-11T01:44:36.411Z,0
2019-02-11T01:45:17.007Z,0
2019-02-11T01:45:57.623Z,0
2019-02-11T01:46:38.229Z,0
2019-02-11T01:47:18.820Z,0
2019-02-11T01:47:59.416Z,0
2019-02-11T01:48:40.025Z,0
2019-02-11T01:49:20.614Z,0
2019-02-11T01:50:01.215Z,0
2019-02-11T01:50:41.829Z,0
2019-02-11T01:51:22.442Z,0
2019-02-11T01:52:03.045Z,0
2019-02-11T01:52:43.631Z,0
2019-02-11T01:53:24.221Z,0
2019-02-11T01:54:04.804Z,0
2019-02-11T01:54:45.392Z,0
2019-02-11T01:55:26.056Z,0
2019-02-11T01:56:06.656Z,0
2019-02-11T01:56:47.261Z,0
2019-02-11T01:57:27.844Z,0
2019-02-11T01:58:08.451Z,0
2019-02-11T01:58:49.039Z,0
2019-02-11T01:59:29.629Z,0
2019-02-11T02:00:10.207Z,0
2019-02-11T02:00:50.808Z,0
2019-02-11T02:01:31.400Z,0
2019-02-11T02:02:12.010Z,0
2019-02-11T02:02:52.607Z,0
2019-02-11T02:03:33.207Z,0
2019-02-11T02:04:13.796Z,0
2019-02-11T02:04:54.411Z,0
2019-02-11T02:05:35.020Z,0
2019-02-11T02:06:15.628Z,0
2019-02-11T02:06:56.224Z,0
2019-02-11T02:07:36.822Z,0
2019-02-11T02:08:17.415Z,0
2019-02-11T02:08:58.006Z,0
2019-02-11T02:09:38.589Z,0
2019-02-11T02:10:19.173Z,0
2019-02-11T02:10:59.767Z,0
2019-02-11T02:11:40.359Z,0
2019-02-11T02:12:20.952Z,0
2019-02-11T02:13:01.549Z,0
2019-02-11T02:13:44.751Z,0
2019-02-11T02:14:22.731Z,0
2019-02-11T02:15:03.340Z,0
2019-02-11T02:15:43.928Z,0
2019-02-11T02:16:24.587Z,0
2019-02-11T02:17:05.174Z,0
2019-02-11T02:17:45.781Z,0
2019-02-11T02:18:26.379Z,0
2019-02-11T02:19:07.017Z,0
2019-02-11T02:19:47.618Z,0
2019-02-11T02:20:28.210Z,0
2019-02-11T02:21:08.817Z,0
2019-02-11T02:21:49.406Z,0
2019-02-11T02:22:30.016Z,0
2019-02-11T02:23:10.614Z,0
2019-02-11T02:23:51.224Z,0
2019-02-11T02:24:31.821Z,0
2019-02-11T02:25:12.435Z,0
2019-02-11T02:25:53.017Z,0
2019-02-11T02:26:33.631Z,0
2019-02-11T02:27:14.241Z,0
2019-02-11T02:27:54.830Z,0
2019-02-11T02:28:35.426Z,0
2019-02-11T02:29:16.067Z,0
2019-02-11T02:29:56.657Z,0
2019-02-11T02:30:37.242Z,0
2019-02-11T02:31:17.861Z,0
2019-02-11T02:31:58.457Z,0
2019-02-11T02:32:39.053Z,0
2019-02-11T02:33:19.652Z,0
2019-02-11T02:34:00.268Z,0
2019-02-11T02:34:40.861Z,0
2019-02-11T02:35:21.465Z,0
2019-02-11T02:36:02.063Z,0
2019-02-11T02:36:42.661Z,0
2019-02-11T02:37:23.298Z,0
2019-02-11T02:38:03.928Z,0
2019-02-11T02:38:44.524Z,0
2019-02-11T02:39:25.161Z,0
2019-02-11T02:40:05.736Z,0
2019-02-11T02:40:46.338Z,0
2019-02-11T02:41:26.967Z,0
2019-02-11T02:42:07.562Z,0
2019-02-11T02:42:48.169Z,0
2019-02-11T02:43:28.760Z,0
2019-02-11T02:44:09.359Z,0
2019-02-11T02:44:49.948Z,0
2019-02-11T02:45:30.567Z,0
2019-02-11T02:46:11.206Z,0
2019-02-11T02:46:51.795Z,0
2019-02-11T02:47:32.396Z,0
2019-02-11T02:48:12.988Z,0
2019-02-11T02:48:53.588Z,0
2019-02-11T02:49:34.191Z,0
2019-02-11T02:50:14.794Z,0
2019-02-11T02:50:55.389Z,0
2019-02-11T02:51:36.005Z,0
2019-02-11T02:52:16.606Z,0
2019-02-11T02:52:57.191Z,0
2019-02-11T02:53:37.785Z,0
2019-02-11T02:54:18.411Z,0
2019-02-11T02:54:59.010Z,0
2019-02-11T02:55:39.604Z,0
2019-02-11T02:56:20.217Z,0
2019-02-11T02:57:00.835Z,0
2019-02-11T02:57:41.484Z,0
2019-02-11T02:58:22.090Z,0
2019-02-11T02:59:02.676Z,0
2019-02-11T02:59:43.277Z,0
2019-02-11T03:00:23.913Z,0
2019-02-11T03:01:04.525Z,0
2019-02-11T03:01:45.109Z,0
2019-02-11T03:02:25.723Z,0
2019-02-11T03:03:06.314Z,0
2019-02-11T03:03:46.895Z,0
2019-02-11T03:04:27.493Z,0
2019-02-11T03:05:08.086Z,0
2019-02-11T03:05:48.688Z,0
2019-02-11T03:06:29.285Z,0
2019-02-11T03:07:09.893Z,0
2019-02-11T03:07:50.479Z,0
2019-02-11T03:08:31.083Z,0
2019-02-11T03:09:11.720Z,0
2019-02-11T03:09:52.295Z,0
2019-02-11T03:10:32.874Z,0
2019-02-11T03:11:13.475Z,0
2019-02-11T03:11:54.079Z,0
2019-02-11T03:12:34.673Z,0
2019-02-11T03:13:15.323Z,0
2019-02-11T03:14:03.737Z,0
2019-02-11T03:14:36.511Z,0
2019-02-11T03:15:17.119Z,0
2019-02-11T03:15:57.717Z,0
2019-02-11T03:16:38.313Z,0
2019-02-11T03:17:18.909Z,0
2019-02-11T03:17:59.511Z,0
2019-02-11T03:18:40.111Z,0
2019-02-11T03:19:20.715Z,0
2019-02-11T03:20:01.327Z,0
2019-02-11T03:20:41.937Z,0
2019-02-11T03:21:22.533Z,0
2019-02-11T03:22:03.138Z,0
2019-02-11T03:22:43.740Z,0
2019-02-11T03:23:24.362Z,0
2019-02-11T03:24:04.941Z,0
2019-02-11T03:24:45.545Z,0
2019-02-11T03:25:26.140Z,0
2019-02-11T03:26:06.729Z,0
2019-02-11T03:26:47.323Z,0
2019-02-11T03:27:27.899Z,0
2019-02-11T03:28:08.482Z,0
2019-02-11T03:28:49.118Z,0
2019-02-11T03:29:29.669Z,0
2019-02-11T03:30:10.325Z,0
2019-02-11T03:30:50.914Z,0
2019-02-11T03:31:31.527Z,0
2019-02-11T03:32:12.115Z,0
2019-02-11T03:32:52.716Z,0
2019-02-11T03:33:33.306Z,0
2019-02-11T03:34:13.898Z,0
2019-02-11T03:34:54.521Z,0
2019-02-11T03:35:35.115Z,0
2019-02-11T03:36:15.715Z,0
2019-02-11T03:36:56.312Z,0
2019-02-11T03:37:36.939Z,0
2019-02-11T03:38:17.519Z,0
2019-02-11T03:38:58.117Z,0
2019-02-11T03:39:38.711Z,0
2019-02-11T03:40:19.321Z,0
2019-02-11T03:40:59.927Z,0
2019-02-11T03:41:40.524Z,0
2019-02-11T03:42:21.119Z,0
2019-02-11T03:43:01.735Z,0
2019-02-11T03:43:42.304Z,0
2019-02-11T03:44:22.907Z,0
2019-02-11T03:45:03.503Z,0
2019-02-11T03:45:44.099Z,0
2019-02-11T03:46:24.697Z,0
2019-02-11T03:47:05.297Z,0
2019-02-11T03:47:45.921Z,0
2019-02-11T03:48:26.511Z,0
2019-02-11T03:49:07.145Z,0
2019-02-11T03:49:47.739Z,0
2019-02-11T03:50:28.337Z,0
2019-02-11T03:51:08.952Z,0
2019-02-11T03:51:49.543Z,0
2019-02-11T03:52:30.151Z,0
2019-02-11T03:53:10.752Z,0
2019-02-11T03:53:51.349Z,0
2019-02-11T03:54:31.957Z,0
2019-02-11T03:55:12.561Z,0
2019-02-11T03:55:53.146Z,0
2019-02-11T03:56:33.765Z,0
2019-02-11T03:57:14.341Z,0
2019-02-11T03:57:54.927Z,0
2019-02-11T03:58:35.535Z,0
2019-02-11T03:59:16.141Z,0
2019-02-11T03:59:56.739Z,0
2019-02-11T04:00:37.340Z,0
2019-02-11T04:01:17.957Z,0
2019-02-11T04:01:58.558Z,0
2019-02-11T04:02:39.154Z,0
2019-02-11T04:03:19.747Z,0
2019-02-11T04:04:00.391Z,0
2019-02-11T04:04:41.001Z,0
2019-02-11T04:05:21.589Z,0
2019-02-11T04:06:02.175Z,0
2019-02-11T04:06:42.771Z,0
2019-02-11T04:07:23.379Z,0
2019-02-11T04:08:04.005Z,0
2019-02-11T04:08:44.675Z,0
2019-02-11T04:09:25.307Z,0
2019-02-11T04:10:05.882Z,0
2019-02-11T04:10:46.481Z,0
2019-02-11T04:11:27.073Z,0
2019-02-11T04:12:07.659Z,0
2019-02-11T04:12:48.275Z,0
2019-02-11T04:13:28.889Z,0
2019-02-11T04:14:09.485Z,0
2019-02-11T04:14:50.083Z,0
2019-02-11T04:15:30.691Z,0
2019-02-11T04:16:11.273Z,0
2019-02-11T04:16:51.863Z,0
2019-02-11T04:17:32.441Z,0
2019-02-11T04:18:13.021Z,0
2019-02-11T04:18:53.615Z,0
2019-02-11T04:19:34.213Z,0
2019-02-11T04:20:14.817Z,0
2019-02-11T04:20:55.469Z,0
2019-02-11T04:21:36.005Z,0
2019-02-11T04:22:16.615Z,0
2019-02-11T04:22:57.197Z,0
2019-02-11T04:23:37.817Z,0
2019-02-11T04:24:18.417Z,0
2019-02-11T04:24:59.019Z,0
2019-02-11T04:25:39.611Z,0
2019-02-11T04:26:20.211Z,0
2019-02-11T04:27:00.812Z,0
2019-02-11T04:27:41.389Z,0
2019-02-11T04:28:21.977Z,0
2019-02-11T04:29:02.578Z,0
2019-02-11T04:29:43.179Z,0
2019-02-11T04:30:23.775Z,0
2019-02-11T04:31:04.367Z,0
2019-02-11T04:31:44.957Z,0
2019-02-11T04:32:25.583Z,0
2019-02-11T04:33:06.180Z,0
2019-02-11T04:33:46.840Z,0
2019-02-11T04:34:27.387Z,0
2019-02-11T04:35:07.988Z,0
2019-02-11T04:35:48.593Z,0
2019-02-11T04:36:29.187Z,0
2019-02-11T04:37:09.791Z,0
2019-02-11T04:37:50.395Z,0
2019-02-11T04:38:31.001Z,0
2019-02-11T04:39:11.603Z,0
2019-02-11T04:39:52.201Z,0
2019-02-11T04:40:32.798Z,0
2019-02-11T04:41:13.405Z,0
2019-02-11T04:41:54.003Z,0
2019-02-11T04:42:34.607Z,0
2019-02-11T04:43:15.185Z,0
2019-02-11T04:43:55.815Z,0
2019-02-11T04:44:36.423Z,0
2019-02-11T04:45:17.023Z,0
2019-02-11T04:45:57.620Z,0
2019-02-11T04:46:38.225Z,0
2019-02-11T04:47:18.825Z,0
2019-02-11T04:47:59.412Z,0
2019-02-11T04:48:40.025Z,0
2019-02-11T04:49:20.611Z,0
2019-02-11T04:50:01.222Z,0
2019-02-11T04:50:41.827Z,0
2019-02-11T04:51:22.421Z,0
2019-02-11T04:52:03.047Z,0
2019-02-11T04:52:43.637Z,0
2019-02-11T04:53:24.246Z,0
2019-02-11T04:54:04.835Z,0
2019-02-11T04:54:45.449Z,0
2019-02-11T04:55:26.031Z,0
2019-02-11T04:56:06.621Z,0
2019-02-11T04:56:47.211Z,0
2019-02-11T04:57:27.858Z,0
2019-02-11T04:58:08.461Z,0
2019-02-11T04:58:49.075Z,0
2019-02-11T04:59:29.656Z,0
2019-02-11T05:00:10.247Z,0
2019-02-11T05:00:50.854Z,0
2019-02-11T05:01:31.473Z,0
2019-02-11T05:02:12.080Z,0
2019-02-11T05:02:52.696Z,0
2019-02-11T05:03:33.275Z,0
2019-02-11T05:04:13.889Z,0
2019-02-11T05:04:54.491Z,0
2019-02-11T05:05:35.123Z,0
2019-02-11T05:06:15.727Z,0
2019-02-11T05:06:56.334Z,0
2019-02-11T05:07:36.916Z,0
2019-02-11T05:08:17.535Z,0
2019-02-11T05:08:58.131Z,0
2019-02-11T05:09:38.727Z,0
2019-02-11T05:10:19.321Z,0
2019-02-11T05:10:59.912Z,0
2019-02-11T05:11:40.524Z,0
2019-02-11T05:12:21.134Z,0
2019-02-11T05:13:01.743Z,0
2019-02-11T05:13:42.337Z,0
2019-02-11T05:14:22.933Z,0
2019-02-11T05:15:03.582Z,0
2019-02-11T05:15:44.202Z,0
2019-02-11T05:16:24.845Z,0
2019-02-11T05:17:05.440Z,0
2019-02-11T05:17:46.068Z,0
2019-02-11T05:18:26.667Z,0
2019-02-11T05:19:07.272Z,0
2019-02-11T05:19:47.848Z,0
2019-02-11T05:20:28.432Z,0
2019-02-11T05:21:09.030Z,0
2019-02-11T05:21:49.636Z,0
2019-02-11T05:22:30.276Z,0
2019-02-11T05:23:10.882Z,0
2019-02-11T05:23:51.497Z,0
2019-02-11T05:24:32.115Z,0
2019-02-11T05:25:12.722Z,0
2019-02-11T05:25:53.335Z,0
2019-02-11T05:26:33.940Z,0
2019-02-11T05:27:14.536Z,0
2019-02-11T05:27:55.144Z,0
2019-02-11T05:28:35.765Z,0
2019-02-11T05:29:16.365Z,0
2019-02-11T05:29:56.975Z,0
2019-02-11T05:30:37.575Z,0
2019-02-11T05:31:18.157Z,0
2019-02-11T05:31:58.782Z,0
2019-02-11T05:32:39.368Z,0
2019-02-11T05:33:20.071Z,0
2019-02-11T05:34:00.663Z,0
2019-02-11T05:34:41.301Z,0
2019-02-11T05:35:21.913Z,0
2019-02-11T05:36:02.493Z,0
2019-02-11T05:36:43.088Z,0
2019-02-11T05:37:23.671Z,0
2019-02-11T05:38:04.292Z,0
2019-02-11T05:38:44.898Z,0
2019-02-11T05:39:25.488Z,0
2019-02-11T05:40:06.073Z,0
2019-02-11T05:40:46.661Z,0
2019-02-11T05:41:27.257Z,0
2019-02-11T05:42:07.891Z,0
2019-02-11T05:42:48.507Z,0
2019-02-11T05:43:29.103Z,0
2019-02-11T05:44:09.701Z,0
2019-02-11T05:44:53.852Z,0
2019-02-11T05:45:30.893Z,0
2019-02-11T05:46:11.512Z,0
2019-02-11T05:46:52.109Z,0
2019-02-11T05:47:32.700Z,0
2019-02-11T05:48:13.296Z,0
2019-02-11T05:48:53.927Z,0
2019-02-11T05:49:34.537Z,0
2019-02-11T05:50:15.127Z,0
2019-02-11T05:50:55.719Z,0
2019-02-11T05:51:36.362Z,0
2019-02-11T05:52:17.033Z,0
2019-02-11T05:52:57.583Z,0
2019-02-11T05:53:38.222Z,0
2019-02-11T05:54:18.821Z,0
2019-02-11T05:54:59.405Z,0
2019-02-11T05:55:40.013Z,0
2019-02-11T05:56:20.623Z,0
2019-02-11T05:57:01.269Z,0
2019-02-11T05:57:41.872Z,0
2019-02-11T05:58:22.498Z,0
2019-02-11T05:59:03.099Z,0
2019-02-11T05:59:43.737Z,0
2019-02-11T06:00:24.319Z,0
2019-02-11T06:01:04.964Z,0
2019-02-11T06:01:45.797Z,0
2019-02-11T06:02:26.407Z,0
2019-02-11T06:03:07.017Z,0
2019-02-11T06:03:47.615Z,0
2019-02-11T06:04:28.215Z,0
2019-02-11T06:05:08.803Z,0
2019-02-11T06:05:49.407Z,0
2019-02-11T06:06:30.013Z,0
2019-02-11T06:07:10.643Z,0
2019-02-11T06:07:51.249Z,0
2019-02-11T06:08:31.839Z,0
2019-02-11T06:09:12.441Z,0
2019-02-11T06:09:53.064Z,0
2019-02-11T06:10:33.664Z,0
2019-02-11T06:11:14.257Z,0
2019-02-11T06:11:54.880Z,0
2019-02-11T06:12:35.488Z,0
2019-02-11T06:13:16.123Z,0
2019-02-11T06:13:56.708Z,0
2019-02-11T06:14:37.305Z,0
2019-02-11T06:15:17.905Z,0
2019-02-11T06:15:58.489Z,0
2019-02-11T06:16:39.106Z,0
2019-02-11T06:17:19.841Z,0
2019-02-11T06:18:00.474Z,0
2019-02-11T06:18:41.088Z,0
2019-02-11T06:19:21.701Z,0
2019-02-11T06:20:02.282Z,0
2019-02-11T06:20:42.860Z,0
2019-02-11T06:21:23.451Z,0
2019-02-11T06:22:04.076Z,0
2019-02-11T06:22:44.667Z,0
2019-02-11T06:23:25.275Z,0
2019-02-11T06:24:05.880Z,0
2019-02-11T06:24:46.492Z,0
2019-02-11T06:25:27.110Z,0
2019-02-11T06:26:07.748Z,0
2019-02-11T06:26:48.309Z,0
2019-02-11T06:27:28.903Z,0
2019-02-11T06:28:09.495Z,0
2019-02-11T06:28:50.107Z,0
2019-02-11T06:29:30.687Z,0
2019-02-11T06:30:11.280Z,0
2019-02-11T06:30:51.877Z,0
2019-02-11T06:31:32.478Z,0
2019-02-11T06:32:13.087Z,0
2019-02-11T06:32:53.699Z,0
2019-02-11T06:33:34.303Z,0
2019-02-11T06:34:14.899Z,0
2019-02-11T06:34:55.491Z,0
2019-02-11T06:35:36.085Z,0
2019-02-11T06:36:16.702Z,0
2019-02-11T06:36:57.302Z,0
2019-02-11T06:37:37.889Z,0
2019-02-11T06:38:18.487Z,0
2019-02-11T06:38:59.088Z,0
2019-02-11T06:39:39.689Z,0
2019-02-11T06:40:20.299Z,0
2019-02-11T06:41:00.909Z,4
2019-02-11T06:41:41.512Z,0
2019-02-11T06:42:22.125Z,0
2019-02-11T06:43:02.729Z,4
2019-02-11T06:43:43.369Z,4
2019-02-11T06:44:23.973Z,4
2019-02-11T06:45:12.434Z,4
2019-02-11T06:45:45.253Z,4
2019-02-11T06:46:25.852Z,4
2019-02-11T06:47:06.451Z,4
2019-02-11T06:47:47.092Z,0
2019-02-11T06:48:27.690Z,4
2019-02-11T06:49:08.292Z,4
2019-02-11T06:49:48.889Z,4
2019-02-11T06:50:29.491Z,4
2019-02-11T06:51:10.102Z,4
2019-02-11T06:51:50.707Z,4
2019-02-11T06:52:31.308Z,8
2019-02-11T06:53:11.954Z,8
2019-02-11T06:53:52.546Z,8
2019-02-11T06:54:33.160Z,4
2019-02-11T06:55:13.772Z,8
2019-02-11T06:55:54.385Z,8
2019-02-11T06:56:34.986Z,8
2019-02-11T06:57:15.584Z,8
2019-02-11T06:57:56.181Z,8
2019-02-11T06:58:36.763Z,12
2019-02-11T06:59:17.349Z,12
2019-02-11T06:59:57.930Z,16
2019-02-11T07:00:38.530Z,16
2019-02-11T07:01:19.112Z,16
2019-02-11T07:01:59.720Z,16
2019-02-11T07:02:40.342Z,16
2019-02-11T07:03:20.939Z,20
2019-02-11T07:04:01.526Z,20
2019-02-11T07:04:42.136Z,24
2019-02-11T07:05:22.742Z,20
2019-02-11T07:06:03.331Z,24
2019-02-11T07:06:43.940Z,28
2019-02-11T07:07:24.558Z,28
2019-02-11T07:08:05.158Z,28
2019-02-11T07:08:45.757Z,32
2019-02-11T07:09:26.336Z,36
2019-02-11T07:10:06.922Z,44
2019-02-11T07:10:55.218Z,52
2019-02-11T07:11:28.143Z,56
2019-02-11T07:12:08.790Z,64
2019-02-11T07:12:49.417Z,72
2019-02-11T07:13:30.008Z,76
2019-02-11T07:14:10.594Z,84
2019-02-11T07:14:51.216Z,88
2019-02-11T07:15:31.896Z,88
2019-02-11T07:16:12.486Z,92
2019-02-11T07:16:53.073Z,92
2019-02-11T07:17:33.681Z,92
2019-02-11T07:18:14.281Z,88
2019-02-11T07:18:54.878Z,88
2019-02-11T07:19:35.488Z,84
2019-02-11T07:20:16.079Z,80
2019-02-11T07:20:56.663Z,80
2019-02-11T07:21:37.270Z,84
2019-02-11T07:22:17.860Z,92
2019-02-11T07:22:58.446Z,100
2019-02-11T07:23:39.046Z,100
2019-02-11T07:24:19.648Z,104
2019-02-11T07:25:00.284Z,100
2019-02-11T07:25:40.866Z,104
2019-02-11T07:26:21.447Z,116
2019-02-11T07:27:02.044Z,128
2019-02-11T07:27:42.630Z,136
2019-02-11T07:28:23.215Z,148
2019-02-11T07:29:03.812Z,152
2019-02-11T07:29:44.398Z,152
2019-02-11T07:30:25.002Z,148
2019-02-11T07:31:05.595Z,148
2019-02-11T07:31:46.192Z,144
2019-02-11T07:32:26.794Z,148
2019-02-11T07:33:07.406Z,148
2019-02-11T07:33:48.000Z,152
2019-02-11T07:34:28.606Z,160
2019-02-11T07:35:09.216Z,164
2019-02-11T07:35:49.812Z,168
2019-02-11T07:36:30.394Z,176
2019-02-11T07:37:10.988Z,184
2019-02-11T07:37:51.574Z,188
2019-02-11T07:38:32.162Z,196
2019-02-11T07:39:12.776Z,204
2019-02-11T07:39:53.416Z,212
2019-02-11T07:40:34.022Z,220
2019-02-11T07:41:14.620Z,228
2019-02-11T07:41:55.233Z,232
2019-02-11T07:42:35.873Z,240
2019-02-11T07:43:16.493Z,248
2019-02-11T07:43:57.145Z,260
2019-02-11T07:44:37.792Z,268
2019-02-11T07:45:18.398Z,280
2019-02-11T07:45:59.026Z,288
2019-02-11T07:46:39.616Z,300
2019-02-11T07:47:20.216Z,312
2019-02-11T07:48:00.828Z,328
2019-02-11T07:48:41.422Z,336
2019-02-11T07:49:22.025Z,344
2019-02-11T07:50:02.626Z,360
2019-02-11T07:50:43.234Z,372
2019-02-11T07:51:23.892Z,392
2019-02-11T07:52:04.488Z,408
2019-02-11T07:52:45.090Z,424
2019-02-11T07:53:25.742Z,432
2019-02-11T07:54:06.502Z,444
2019-02-11T07:54:47.088Z,456
2019-02-11T07:55:27.748Z,464
2019-02-11T07:56:08.952Z,472
2019-02-11T07:56:49.546Z,468
2019-02-11T07:57:30.140Z,472
2019-02-11T07:58:10.777Z,472
2019-02-11T07:58:51.380Z,472
2019-02-11T07:59:31.995Z,476
2019-02-11T08:00:12.583Z,484
2019-02-11T08:00:53.172Z,500
2019-02-11T08:01:33.787Z,504
2019-02-11T08:02:14.390Z,508
2019-02-11T08:02:54.990Z,516
2019-02-11T08:03:35.594Z,524
2019-02-11T08:04:16.180Z,532
2019-02-11T08:04:56.766Z,544
2019-02-11T08:05:37.372Z,556
2019-02-11T08:06:17.970Z,564
2019-02-11T08:06:58.590Z,572
2019-02-11T08:07:39.195Z,584
2019-02-11T08:08:19.784Z,592
2019-02-11T08:09:00.382Z,596
2019-02-11T08:09:40.968Z,592
2019-02-11T08:10:21.612Z,584
2019-02-11T08:11:02.198Z,580
2019-02-11T08:11:42.787Z,576
2019-02-11T08:12:23.380Z,576
2019-02-11T08:13:03.977Z,580
2019-02-11T08:13:44.568Z,596
2019-02-11T08:14:25.172Z,620
2019-02-11T08:15:05.764Z,632
2019-02-11T08:15:46.353Z,632
2019-02-11T08:16:26.960Z,632
2019-02-11T08:17:07.570Z,600
2019-02-11T08:17:48.163Z,604
2019-02-11T08:18:28.760Z,588
2019-02-11T08:19:09.368Z,576
2019-02-11T08:19:49.973Z,576
2019-02-11T08:20:30.618Z,576
2019-02-11T08:21:11.212Z,576
2019-02-11T08:21:51.812Z,564
2019-02-11T08:22:32.462Z,560
2019-02-11T08:23:13.791Z,548
2019-02-11T08:23:53.686Z,556
2019-02-11T08:24:34.280Z,568
2019-02-11T08:25:14.888Z,580
2019-02-11T08:25:55.488Z,588
2019-02-11T08:26:36.082Z,600
2019-02-11T08:27:16.683Z,596
2019-02-11T08:27:57.400Z,600
2019-02-11T08:28:38.010Z,592
2019-02-11T08:29:18.627Z,576
2019-02-11T08:29:59.206Z,584
2019-02-11T08:30:39.846Z,596
2019-02-11T08:31:20.438Z,608
2019-02-11T08:32:01.018Z,624
2019-02-11T08:32:41.612Z,644
2019-02-11T08:33:22.204Z,652
2019-02-11T08:34:02.820Z,660
2019-02-11T08:34:43.412Z,660
2019-02-11T08:35:24.047Z,664
2019-02-11T08:36:04.646Z,648
2019-02-11T08:36:45.257Z,648
2019-02-11T08:37:25.857Z,648
2019-02-11T08:38:06.446Z,660
2019-02-11T08:38:47.047Z,668
2019-02-11T08:39:27.637Z,664
2019-02-11T08:40:08.232Z,660
2019-02-11T08:40:48.824Z,660
2019-02-11T08:41:29.430Z,656
2019-02-11T08:42:10.041Z,644
2019-02-11T08:42:50.647Z,640
2019-02-11T08:43:31.249Z,652
2019-02-11T08:44:11.846Z,644
2019-02-11T08:44:52.448Z,648
2019-02-11T08:45:33.038Z,656
2019-02-11T08:46:13.620Z,672
2019-02-11T08:46:54.253Z,680
2019-02-11T08:47:34.871Z,684
2019-02-11T08:48:15.467Z,692
2019-02-11T08:48:56.070Z,688
2019-02-11T08:49:36.665Z,676
2019-02-11T08:50:17.263Z,692
2019-02-11T08:50:57.854Z,688
2019-02-11T08:51:38.438Z,684
2019-02-11T08:52:19.036Z,680
2019-02-11T08:52:59.651Z,664
2019-02-11T08:53:40.268Z,656
2019-02-11T08:54:20.862Z,652
2019-02-11T08:55:01.458Z,640
2019-02-11T08:55:42.096Z,648
2019-02-11T08:56:22.700Z,648
2019-02-11T08:57:03.301Z,644
2019-02-11T08:57:43.892Z,636
2019-02-11T08:58:24.482Z,628
2019-02-11T08:59:05.080Z,620
2019-02-11T08:59:45.689Z,628
2019-02-11T09:00:26.274Z,624
2019-02-11T09:01:06.878Z,620
2019-02-11T09:01:47.501Z,596
2019-02-11T09:02:28.094Z,592
2019-02-11T09:03:08.707Z,588
2019-02-11T09:03:49.298Z,576
2019-02-11T09:04:29.921Z,572
2019-02-11T09:05:10.528Z,572
2019-02-11T09:05:51.130Z,584
2019-02-11T09:06:31.718Z,600
2019-02-11T09:07:12.304Z,604
2019-02-11T09:07:52.946Z,592
2019-02-11T09:08:33.552Z,620
2019-02-11T09:09:14.190Z,616
2019-02-11T09:09:54.818Z,624
2019-02-11T09:10:35.412Z,628
2019-02-11T09:11:16.006Z,636
2019-02-11T09:11:56.679Z,640
2019-02-11T09:12:37.361Z,640
2019-02-11T09:13:17.927Z,652
2019-02-11T09:13:58.522Z,656
2019-02-11T09:14:39.112Z,656
2019-02-11T09:15:19.723Z,660
2019-02-11T09:16:00.338Z,672
2019-02-11T09:16:40.938Z,684
2019-02-11T09:17:21.535Z,696
2019-02-11T09:18:02.125Z,700
2019-02-11T09:18:42.717Z,704
2019-02-11T09:19:23.333Z,700
2019-02-11T09:20:03.934Z,700
2019-02-11T09:20:44.519Z,692
2019-02-11T09:21:25.177Z,688
2019-02-11T09:22:07.414Z,688
2019-02-11T09:22:46.415Z,688
2019-02-11T09:23:27.022Z,688
2019-02-11T09:24:07.635Z,688
2019-02-11T09:24:48.245Z,688
2019-02-11T09:25:28.845Z,684
2019-02-11T09:26:09.434Z,688
2019-02-11T09:26:50.043Z,696
2019-02-11T09:27:30.661Z,700
2019-02-11T09:28:11.283Z,708
2019-02-11T09:28:51.888Z,720
2019-02-11T09:29:32.500Z,728
2019-02-11T09:30:13.085Z,736
2019-02-11T09:30:53.698Z,744
2019-02-11T09:31:34.301Z,748
2019-02-11T09:32:14.927Z,752
2019-02-11T09:32:55.525Z,744
2019-02-11T09:33:36.128Z,740
2019-02-11T09:34:16.728Z,732
2019-02-11T09:34:57.358Z,740
2019-02-11T09:35:37.975Z,740
2019-02-11T09:36:18.587Z,740
2019-02-11T09:36:59.196Z,740
2019-02-11T09:37:39.792Z,744
2019-02-11T09:38:20.412Z,744
2019-02-11T09:39:01.013Z,740
2019-02-11T09:39:41.626Z,728
2019-02-11T09:40:22.231Z,732
2019-02-11T09:41:02.820Z,720
2019-02-11T09:41:43.404Z,700
2019-02-11T09:42:24.003Z,692
2019-02-11T09:43:04.613Z,696
2019-02-11T09:43:45.208Z,712
2019-02-11T09:44:29.571Z,708
2019-02-11T09:45:06.428Z,712
2019-02-11T09:45:47.017Z,716
2019-02-11T09:46:27.612Z,700
2019-02-11T09:47:08.220Z,696
2019-02-11T09:47:48.819Z,700
2019-02-11T09:48:29.425Z,688
2019-02-11T09:49:10.036Z,696
2019-02-11T09:49:50.626Z,692
2019-02-11T09:50:31.226Z,712